KRAP/RAP METAR and TAF weather

Enter ICAO airport designator
Station Type Date Time Source
KRAP METAR 2019/12/08 18:52 UTC NOAA

KRAP 081852Z 13009KT 10SM CLR 06/M02 A2956 RMK AO2 SLP028 T00561017


Station Type Date Time Source
KRAP Decoded METAR 2019/12/08 18:52 UTC NOAA

RAPID CITY REGIONAL AIRPORT , SD, United States (KRAP) 44-03N 103-03W 965M
Dec 08, 2019 - 01:52 PM EST / 2019.12.08 1852 UTC
Wind: from the SE (130 degrees) at 10 MPH (9 KT):0
Visibility: 10 mile(s):0
Sky conditions: clear
Temperature: 42.1 F (5.6 C)
Dew Point: 28.9 F (-1.7 C)
Relative Humidity: 59%
Pressure (altimeter): 29.56 in. Hg (1001 hPa)
ob: KRAP 081852Z 13009KT 10SM CLR 06/M02 A2956 RMK AO2 SLP028 T00561017
cycle: 19

Station Type Date Time Source
KRAP TAF 2019/12/08 18:36 UTC NOAA

TAF KRAP 081734Z 0818/0918 30007KT P6SM BKN150
FM082300 07009KT 1SM BR OVC003
FM090200 36015G25KT 2SM -SN BR OVC008
FM090700 35025G35KT P6SM BKN025
FM091400 34012KT P6SM SCT150

Example: see airport list